Portada
METAR-TAF:

METAR-TAF

Aeroports :

Mae Sot, Tailàndia

latitud: 16-40N, longitud: 098-33E, altitud: 196 m

Observació

L'informe es va fer fa 3 hores i 10 minuts, a les 11:00 UTC
Vent 10 kt del Sud-Oest
Temperatura 33°C
Humitat 59%
Pressió 1004 hPa
Visibilitat 10 km o més
Escasses núvols a una alçada de 4700 ft

METAR: VTPM 141100Z 23010KT 9999 FEW047 33/24 Q1004 NOSIG

Hora: 21:10 (14:10 UTC)

Pronòstic

L'informe es va fer fa 3 hores i 10 minuts, a les 11:00 UTC
Pronòstic vàlid del 14 a les 12 UTC al 15 a les 12 UTC
Vent 5 kt del Oest
Visibilitat 10 km o més
Escasses núvols a una alçada de 3500 ft

TAF: VTPM 141100Z 1412/1512 27005KT 9999 FEW035

Observacions i pronòstics meteorològics de més de 4000 aeroports (METAR i TAF).

Les estacions disponibles són els punts grocs i vermells al mapa.

Posi el ratolí al punt desitjat per veure el nom de l'estació.

Feu clic per veure les observacions i els pronòstics meteorològics.

Per canviar el mapa: feu clic els botons verds amb una creu de color negre per apropar; al botó verd amb un guió per allunyar la imatge; o en les fletxes verdes per a mapes adjacents.


METAR-TAF: